Condor Express — 9V5373 — position and weather

sailwx.info

Track history (hours):
 
Tides and Currents Weather Stations Pressure Air Temp Water Temp Dewpoint Dewpoint Depression Visibility Wind Speed Wind Dir Waves Ship Positions

Condor Express

Operator: Condor Marine Services

Last reported at 2018-Jul-02 11:12 UTC. Time now 2018-Aug-18 00:47 UTC.
Position S 32°29' E 152°51'.
Warning: this ship's position is 46 days out of date.

Length 235 m; draft 12.3 m.

Type: Cargo ship. MMSI: 563014500.

Date/timePositionNaut miles runAvg speedWind from/ knotsBaromVisibWave heightAir tempDewpointWater temp
2018-Jul-02 11:12S 32°29' E 152°51'611.5
2018-Jul-02 10:40S 32°33' E 152°46'211.5
2018-Jul-02 10:30S 32°35' E 152°44'611.4
2018-Jul-02 10:00S 32°39' E 152°39'611.4
2018-Jul-02 09:31S 32°43' E 152°34'611.4
2018-Jul-02 09:01S 32°46' E 152°29'611.2
2018-Jul-02 08:31S 32°50' E 152°24'510.6
2018-Jul-02 08:01S 32°53' E 152°19'510.4
2018-Jul-02 07:31S 32°55' E 152°13'510.2
2018-Jul-02 07:01S 32°56' E 152°07'510.1
2018-Jul-02 06:30S 32°58' E 152°02'5 9.8
2018-Jul-02 06:00S 32°59' E 151°56'5 9.1
2018-Jul-02 05:30S 32°60' E 151°51'4 8.4
2018-Jul-02 05:01S 32°56' E 151°49'2 4.9
2018-Jul-02 04:30S 32°55' E 151°46'2 2.3
2018-Jul-02 03:49S 32°53' E 151°46'0 0.0
2018-Jul-02 03:19S 32°53' E 151°46'0 0.0
2018-Jul-02 02:55S 32°53' E 151°46'0 0.0
2018-Jul-02 02:25S 32°53' E 151°46'0 0.0
2018-Jul-01 23:19S 32°53' E 151°46'0 0.0
2018-Jul-01 18:13S 32°53' E 151°46'0 0.0
2018-Jul-01 17:55S 32°53' E 151°46'0 0.0
2018-Jul-01 17:25S 32°53' E 151°46'0 0.0
2018-Jul-01 16:58S 32°53' E 151°46'0 0.0
2018-Jul-01 16:28S 32°53' E 151°46'0 0.0
2018-Jul-01 15:58S 32°53' E 151°46'0 0.1
2018-Jul-01 15:28S 32°53' E 151°46'0 0.0
2018-Jul-01 14:55S 32°53' E 151°46'0 0.1
2018-Jul-01 14:25S 32°53' E 151°46'0 0.0
2018-Jul-01 13:52S 32°53' E 151°46'0 0.1
2018-Jul-01 13:25S 32°53' E 151°46'0 0.1
2018-Jul-01 12:58S 32°53' E 151°46'0 0.0
2018-Jul-01 12:25S 32°53' E 151°46'0 0.0
2018-Jul-01 11:55S 32°53' E 151°46'0 0.1
2018-Jul-01 11:28S 32°53' E 151°46'0 0.1
2018-Jul-01 10:55S 32°53' E 151°46'0 0.1
2018-Jul-01 10:28S 32°53' E 151°46'0 0.1
2018-Jul-01 09:58S 32°53' E 151°46'0 0.0
2018-Jul-01 09:28S 32°53' E 151°46'0 0.1
2018-Jul-01 08:55S 32°53' E 151°46'0 0.1
2018-Jul-01 08:25S 32°53' E 151°46'0 0.0
2018-Jul-01 07:37S 32°53' E 151°46'0 0.1
2018-Jul-01 07:07S 32°53' E 151°46'0 0.0
2018-Jul-01 06:58S 32°53' E 151°46'0 0.1
2018-Jul-01 06:25S 32°53' E 151°46'0 0.1
2018-Jul-01 05:59S 32°53' E 151°46'1 1.9
2018-Jul-01 05:31S 32°54' E 151°46'3 5.5
2018-Jul-01 05:01S 32°55' E 151°49'510.2
2018-Jul-01 04:31S 32°59' E 151°52'5 9.3
2018-Jul-01 04:01S 33°04' E 151°53'1 2.6
2018-Jul-01 03:31S 33°05' E 151°54'1 1.2
2018-Jul-01 03:01S 33°05' E 151°55'1 1.2
2018-Jul-01 02:31S 33°05' E 151°55'1 1.4
2018-Jul-01 02:00S 33°05' E 151°56'1 1.5
2018-Jul-01 01:30S 33°06' E 151°57'1 2.4
2018-Jul-01 01:01S 33°06' E 151°58'5 9.2
2018-Jul-01 00:30S 33°10' E 152°02'611.8
2018-Jun-30 23:59S 33°16' E 152°04'3 0.4
2018-Jun-30 16:08S 33°19' E 152°05'0 0.9
2018-Jun-30 16:01S 33°19' E 152°05'1 1.0
2018-Jun-30 15:30S 33°18' E 152°04'0 1.0
2018-Jun-30 15:00S 33°18' E 152°04'1 1.0
2018-Jun-30 14:28S 33°17' E 152°04'1 1.3
2018-Jun-30 14:01S 33°17' E 152°03'1 1.2
2018-Jun-30 13:31S 33°16' E 152°03'1 1.3
2018-Jun-30 13:01S 33°16' E 152°02'1 1.4
2018-Jun-30 12:31S 33°15' E 152°02'1 1.4
2018-Jun-30 12:00S 33°15' E 152°02'1 1.5
2018-Jun-30 11:31S 33°14' E 152°01'1 1.8
2018-Jun-30 10:55S 33°13' E 152°01'1 1.8
2018-Jun-30 10:30S 33°12' E 152°01'1 1.8
2018-Jun-30 10:00S 33°11' E 152°01'1 1.9
2018-Jun-30 09:30S 33°10' E 152°01'1 1.9
2018-Jun-30 09:01S 33°09' E 152°01'1 1.9
2018-Jun-30 08:29S 33°08' E 152°01'1 1.6
2018-Jun-30 08:01S 33°08' E 152°02'1 1.5
2018-Jun-30 07:31S 33°07' E 152°02'1 1.7
2018-Jun-30 07:00S 33°06' E 152°03'1 1.8
2018-Jun-30 06:31S 33°06' E 152°04'1 1.1
2018-Jun-30 06:01S 33°06' E 152°04'3 5.0
2018-Jun-30 05:30S 33°08' E 152°04'611.2
2018-Jun-30 05:01S 33°14' E 152°02'4 0.3
2018-Jun-29 15:35S 33°18' E 152°02'0 2.2
2018-Jun-29 15:30S 33°18' E 152°02'1 2.3
2018-Jun-29 14:58S 33°17' E 152°03'1 2.2
2018-Jun-29 14:30S 33°16' E 152°03'2 2.1
2018-Jun-29 13:47S 33°14' E 152°04'1 2.1
2018-Jun-29 13:31S 33°14' E 152°04'1 2.0
2018-Jun-29 13:01S 33°13' E 152°04'1 1.9
2018-Jun-29 12:28S 33°12' E 152°05'1 1.9
2018-Jun-29 12:00S 33°11' E 152°05'1 1.9
2018-Jun-29 11:30S 33°10' E 152°05'1 2.3
2018-Jun-29 11:01S 33°09' E 152°06'3 5.7
2018-Jun-29 10:31S 33°09' E 152°09'6 0.9
2018-Jun-29 04:06S 33°13' E 152°14'0 1.1
2018-Jun-29 03:58S 33°13' E 152°14'2 1.2
2018-Jun-29 02:00S 33°11' E 152°13'1 1.1
2018-Jun-29 01:29S 33°10' E 152°13'1 1.1
2018-Jun-29 00:58S 33°09' E 152°13'1 1.3
2018-Jun-29 00:22S 33°09' E 152°13'0 1.3
2018-Jun-28 23:59S 33°08' E 152°13'1 1.2
2018-Jun-28 23:28S 33°08' E 152°13'1 1.1
2018-Jun-28 23:00S 33°07' E 152°13'1 1.1
2018-Jun-28 22:31S 33°07' E 152°13'1 1.1
2018-Jun-28 22:01S 33°06' E 152°13'1 1.1
2018-Jun-28 21:30S 33°05' E 152°13'0 0.9
2018-Jun-28 21:00S 33°05' E 152°13'0 0.8
2018-Jun-28 20:29S 33°05' E 152°12'0 0.8
2018-Jun-28 20:00S 33°04' E 152°13'0 1.0
2018-Jun-28 19:31S 33°04' E 152°12'1 2.0
2018-Jun-28 19:01S 33°03' E 152°13'4 8.8
2018-Jun-28 18:30S 32°59' E 152°14'2 3.2
2018-Jun-28 18:00S 32°57' E 152°14'0 0.8
2018-Jun-28 17:31S 32°57' E 152°14'0 0.7
2018-Jun-28 17:01S 32°58' E 152°15'0 0.6
2018-Jun-28 16:31S 32°58' E 152°15'0 0.5
2018-Jun-28 16:00S 32°58' E 152°15'0 0.5
2018-Jun-28 15:30S 32°58' E 152°15'0 0.6
2018-Jun-28 15:00S 32°59' E 152°15'0 0.6
2018-Jun-28 14:31S 32°59' E 152°15'0 0.4
2018-Jun-28 14:01S 32°59' E 152°15'0 0.5
2018-Jun-28 13:30S 32°59' E 152°16'0 0.5
2018-Jun-28 13:01S 32°59' E 152°16'0 0.5
2018-Jun-28 12:30S 32°60' E 152°16'0 0.4
2018-Jun-28 12:01S 32°60' E 152°16'0 0.5
2018-Jun-28 11:31S 32°60' E 152°17'0 0.7
2018-Jun-28 11:00S 32°60' E 152°17'0 0.9
2018-Jun-28 10:30S 33°00' E 152°17'1 1.3
2018-Jun-28 10:01S 33°00' E 152°18'1 1.2
2018-Jun-28 09:31S 33°01' E 152°19'0 1.0
2018-Jun-28 09:01S 33°01' E 152°19'0 0.9
2018-Jun-28 08:31S 33°01' E 152°20'1 1.9
2018-Jun-28 08:01S 33°01' E 152°21'1 2.0
2018-Jun-28 07:31S 33°00' E 152°22'1 2.2
2018-Jun-28 07:01S 33°00' E 152°23'2 4.6
2018-Jun-28 06:31S 33°02' E 152°25'510.1
2018-Jun-28 06:01S 33°06' E 152°23'611.0
2018-Jun-28 05:30S 33°10' E 152°17'610.9
2018-Jun-28 05:00S 33°13' E 152°13'610.6
2018-Jun-28 04:28S 33°17' E 152°07'510.3
2018-Jun-28 04:00S 33°20' E 152°03'7 5.7
2018-Jun-28 02:44S 33°24' E 151°55'1 1.8
2018-Jun-28 01:57S 33°22' E 151°56'6 1.8
2018-Jun-27 22:39S 33°18' E 152°00'1 2.2
2018-Jun-27 21:58S 33°17' E 152°02'1 1.9
2018-Jun-27 21:30S 33°16' E 152°03'1 2.1
2018-Jun-27 21:00S 33°15' E 152°03'1 2.3
2018-Jun-27 20:31S 33°15' E 152°04'1 2.7
2018-Jun-27 20:01S 33°14' E 152°06'1 2.7
2018-Jun-27 19:31S 33°13' E 152°07'1 2.7
2018-Jun-27 19:01S 33°12' E 152°08'1 2.5
2018-Jun-27 18:31S 33°11' E 152°09'1 2.3
2018-Jun-27 18:01S 33°10' E 152°10'1 2.3
2018-Jun-27 17:31S 33°09' E 152°11'1 2.2
2018-Jun-27 17:01S 33°08' E 152°12'1 2.1
2018-Jun-27 16:31S 33°08' E 152°12'1 2.3
2018-Jun-27 16:01S 33°07' E 152°13'1 2.4
2018-Jun-27 15:31S 33°06' E 152°15'1 2.2
2018-Jun-27 15:00S 33°05' E 152°15'1 2.2
2018-Jun-27 14:31S 33°05' E 152°17'1 2.1
2018-Jun-27 13:59S 33°04' E 152°18'1 1.9
2018-Jun-27 13:31S 33°04' E 152°18'1 2.0
2018-Jun-27 13:01S 33°03' E 152°19'1 2.0
2018-Jun-27 12:31S 33°02' E 152°20'1 1.9
2018-Jun-27 11:57S 33°02' E 152°21'1 1.9
2018-Jun-27 11:31S 33°01' E 152°22'1 1.9
2018-Jun-27 11:01S 33°01' E 152°23'1 1.8
2018-Jun-27 10:31S 33°00' E 152°24'1 1.8
2018-Jun-27 09:58S 32°60' E 152°25'1 1.6
2018-Jun-27 09:27S 32°59' E 152°26'1 1.5
2018-Jun-27 08:57S 32°59' E 152°27'1 1.5
2018-Jun-27 08:31S 32°58' E 152°27'1 1.2
2018-Jun-27 08:01S 32°58' E 152°28'0 0.7
2018-Jun-27 07:31S 32°58' E 152°28'1 1.9
2018-Jun-27 07:00S 32°58' E 152°27'510.3
2018-Jun-27 06:30S 32°59' E 152°21'3 7.0
2018-Jun-27 06:01S 32°55' E 152°20'1 1.5
2018-Jun-27 05:29S 32°55' E 152°21'1 1.1
2018-Jun-27 04:59S 32°55' E 152°21'1 1.3
2018-Jun-27 04:30S 32°55' E 152°22'1 1.4
2018-Jun-27 04:00S 32°55' E 152°23'1 1.0
2018-Jun-27 03:30S 32°55' E 152°24'1 1.1
2018-Jun-27 03:00S 32°55' E 152°24'1 1.2
2018-Jun-27 02:30S 32°55' E 152°25'0 0.9
2018-Jun-27 02:00S 32°55' E 152°26'0 0.8
2018-Jun-27 01:30S 32°55' E 152°26'0 0.8
2018-Jun-27 01:00S 32°55' E 152°26'0 0.5
2018-Jun-27 00:30S 32°54' E 152°27'0 0.7
2018-Jun-27 00:00S 32°54' E 152°27'0 1.0
2018-Jun-26 23:30S 32°55' E 152°28'0 1.0
2018-Jun-26 23:00S 32°55' E 152°28'1 1.8
2018-Jun-26 22:30S 32°55' E 152°29'4 8.4
2018-Jun-26 22:00S 32°55' E 152°34'612.6
2018-Jun-26 21:30S 32°51' E 152°40'712.6
2018-Jun-26 20:57S 32°47' E 152°47'512.5
2018-Jun-26 20:30S 32°45' E 152°53'712.2
2018-Jun-26 19:58S 32°41' E 152°59'  
Track history (hours):
 
Tides and Currents Weather Stations Pressure Air Temp Water Temp Dewpoint Dewpoint Depression Visibility Wind Speed Wind Dir Waves Ship Positions

Condor Express

Operator: Condor Marine Services

Last reported at 2018-Jul-02 11:12 UTC. Time now 2018-Aug-18 00:47 UTC.
Position S 32°29' E 152°51'.
Warning: this ship's position is 46 days out of date.

Length 235 m; draft 12.3 m.

Type: Cargo ship. MMSI: 563014500.

Date/timePositionNaut miles runAvg speedWind from/ knotsBaromVisibWave heightAir tempDewpointWater temp
2018-Jul-02 11:12S 32°29' E 152°51'611.5
2018-Jul-02 10:40S 32°33' E 152°46'211.5
2018-Jul-02 10:30S 32°35' E 152°44'611.4
2018-Jul-02 10:00S 32°39' E 152°39'611.4
2018-Jul-02 09:31S 32°43' E 152°34'611.4
2018-Jul-02 09:01S 32°46' E 152°29'611.2
2018-Jul-02 08:31S 32°50' E 152°24'510.6
2018-Jul-02 08:01S 32°53' E 152°19'510.4
2018-Jul-02 07:31S 32°55' E 152°13'510.2
2018-Jul-02 07:01S 32°56' E 152°07'510.1
2018-Jul-02 06:30S 32°58' E 152°02'5 9.8
2018-Jul-02 06:00S 32°59' E 151°56'5 9.1
2018-Jul-02 05:30S 32°60' E 151°51'4 8.4
2018-Jul-02 05:01S 32°56' E 151°49'2 4.9
2018-Jul-02 04:30S 32°55' E 151°46'2 2.3
2018-Jul-02 03:49S 32°53' E 151°46'0 0.0
2018-Jul-02 03:19S 32°53' E 151°46'0 0.0
2018-Jul-02 02:55S 32°53' E 151°46'0 0.0
2018-Jul-02 02:25S 32°53' E 151°46'0 0.0
2018-Jul-01 23:19S 32°53' E 151°46'0 0.0
2018-Jul-01 18:13S 32°53' E 151°46'0 0.0
2018-Jul-01 17:55S 32°53' E 151°46'0 0.0
2018-Jul-01 17:25S 32°53' E 151°46'0 0.0
2018-Jul-01 16:58S 32°53' E 151°46'0 0.0
2018-Jul-01 16:28S 32°53' E 151°46'0 0.0
2018-Jul-01 15:58S 32°53' E 151°46'0 0.1
2018-Jul-01 15:28S 32°53' E 151°46'0 0.0
2018-Jul-01 14:55S 32°53' E 151°46'0 0.1
2018-Jul-01 14:25S 32°53' E 151°46'0 0.0
2018-Jul-01 13:52S 32°53' E 151°46'0 0.1
2018-Jul-01 13:25S 32°53' E 151°46'0 0.1
2018-Jul-01 12:58S 32°53' E 151°46'0 0.0
2018-Jul-01 12:25S 32°53' E 151°46'0 0.0
2018-Jul-01 11:55S 32°53' E 151°46'0 0.1
2018-Jul-01 11:28S 32°53' E 151°46'0 0.1
2018-Jul-01 10:55S 32°53' E 151°46'0 0.1
2018-Jul-01 10:28S 32°53' E 151°46'0 0.1
2018-Jul-01 09:58S 32°53' E 151°46'0 0.0
2018-Jul-01 09:28S 32°53' E 151°46'0 0.1
2018-Jul-01 08:55S 32°53' E 151°46'0 0.1
2018-Jul-01 08:25S 32°53' E 151°46'0 0.0
2018-Jul-01 07:37S 32°53' E 151°46'0 0.1
2018-Jul-01 07:07S 32°53' E 151°46'0 0.0
2018-Jul-01 06:58S 32°53' E 151°46'0 0.1
2018-Jul-01 06:25S 32°53' E 151°46'0 0.1
2018-Jul-01 05:59S 32°53' E 151°46'1 1.9
2018-Jul-01 05:31S 32°54' E 151°46'3 5.5
2018-Jul-01 05:01S 32°55' E 151°49'510.2
2018-Jul-01 04:31S 32°59' E 151°52'5 9.3
2018-Jul-01 04:01S 33°04' E 151°53'1 2.6
2018-Jul-01 03:31S 33°05' E 151°54'1 1.2
2018-Jul-01 03:01S 33°05' E 151°55'1 1.2
2018-Jul-01 02:31S 33°05' E 151°55'1 1.4
2018-Jul-01 02:00S 33°05' E 151°56'1 1.5
2018-Jul-01 01:30S 33°06' E 151°57'1 2.4
2018-Jul-01 01:01S 33°06' E 151°58'5 9.2
2018-Jul-01 00:30S 33°10' E 152°02'611.8
2018-Jun-30 23:59S 33°16' E 152°04'3 0.4
2018-Jun-30 16:08S 33°19' E 152°05'0 0.9
2018-Jun-30 16:01S 33°19' E 152°05'1 1.0
2018-Jun-30 15:30S 33°18' E 152°04'0 1.0
2018-Jun-30 15:00S 33°18' E 152°04'1 1.0
2018-Jun-30 14:28S 33°17' E 152°04'1 1.3
2018-Jun-30 14:01S 33°17' E 152°03'1 1.2
2018-Jun-30 13:31S 33°16' E 152°03'1 1.3
2018-Jun-30 13:01S 33°16' E 152°02'1 1.4
2018-Jun-30 12:31S 33°15' E 152°02'1 1.4
2018-Jun-30 12:00S 33°15' E 152°02'1 1.5
2018-Jun-30 11:31S 33°14' E 152°01'1 1.8
2018-Jun-30 10:55S 33°13' E 152°01'1 1.8
2018-Jun-30 10:30S 33°12' E 152°01'1 1.8
2018-Jun-30 10:00S 33°11' E 152°01'1 1.9
2018-Jun-30 09:30S 33°10' E 152°01'1 1.9
2018-Jun-30 09:01S 33°09' E 152°01'1 1.9
2018-Jun-30 08:29S 33°08' E 152°01'1 1.6
2018-Jun-30 08:01S 33°08' E 152°02'1 1.5
2018-Jun-30 07:31S 33°07' E 152°02'1 1.7
2018-Jun-30 07:00S 33°06' E 152°03'1 1.8
2018-Jun-30 06:31S 33°06' E 152°04'1 1.1
2018-Jun-30 06:01S 33°06' E 152°04'3 5.0
2018-Jun-30 05:30S 33°08' E 152°04'611.2
2018-Jun-30 05:01S 33°14' E 152°02'4 0.3
2018-Jun-29 15:35S 33°18' E 152°02'0 2.2
2018-Jun-29 15:30S 33°18' E 152°02'1 2.3
2018-Jun-29 14:58S 33°17' E 152°03'1 2.2
2018-Jun-29 14:30S 33°16' E 152°03'2 2.1
2018-Jun-29 13:47S 33°14' E 152°04'1 2.1
2018-Jun-29 13:31S 33°14' E 152°04'1 2.0
2018-Jun-29 13:01S 33°13' E 152°04'1 1.9
2018-Jun-29 12:28S 33°12' E 152°05'1 1.9
2018-Jun-29 12:00S 33°11' E 152°05'1 1.9
2018-Jun-29 11:30S 33°10' E 152°05'1 2.3
2018-Jun-29 11:01S 33°09' E 152°06'3 5.7
2018-Jun-29 10:31S 33°09' E 152°09'6 0.9
2018-Jun-29 04:06S 33°13' E 152°14'0 1.1
2018-Jun-29 03:58S 33°13' E 152°14'2 1.2
2018-Jun-29 02:00S 33°11' E 152°13'1 1.1
2018-Jun-29 01:29S 33°10' E 152°13'1 1.1
2018-Jun-29 00:58S 33°09' E 152°13'1 1.3
2018-Jun-29 00:22S 33°09' E 152°13'0 1.3
2018-Jun-28 23:59S 33°08' E 152°13'1 1.2
2018-Jun-28 23:28S 33°08' E 152°13'1 1.1
2018-Jun-28 23:00S 33°07' E 152°13'1 1.1
2018-Jun-28 22:31S 33°07' E 152°13'1 1.1
2018-Jun-28 22:01S 33°06' E 152°13'1 1.1
2018-Jun-28 21:30S 33°05' E 152°13'0 0.9
2018-Jun-28 21:00S 33°05' E 152°13'0 0.8
2018-Jun-28 20:29S 33°05' E 152°12'0 0.8
2018-Jun-28 20:00S 33°04' E 152°13'0 1.0
2018-Jun-28 19:31S 33°04' E 152°12'1 2.0
2018-Jun-28 19:01S 33°03' E 152°13'4 8.8
2018-Jun-28 18:30S 32°59' E 152°14'2 3.2
2018-Jun-28 18:00S 32°57' E 152°14'0 0.8
2018-Jun-28 17:31S 32°57' E 152°14'0 0.7
2018-Jun-28 17:01S 32°58' E 152°15'0 0.6
2018-Jun-28 16:31S 32°58' E 152°15'0 0.5
2018-Jun-28 16:00S 32°58' E 152°15'0 0.5
2018-Jun-28 15:30S 32°58' E 152°15'0 0.6
2018-Jun-28 15:00S 32°59' E 152°15'0 0.6
2018-Jun-28 14:31S 32°59' E 152°15'0 0.4
2018-Jun-28 14:01S 32°59' E 152°15'0 0.5
2018-Jun-28 13:30S 32°59' E 152°16'0 0.5
2018-Jun-28 13:01S 32°59' E 152°16'0 0.5
2018-Jun-28 12:30S 32°60' E 152°16'0 0.4
2018-Jun-28 12:01S 32°60' E 152°16'0 0.5
2018-Jun-28 11:31S 32°60' E 152°17'0 0.7
2018-Jun-28 11:00S 32°60' E 152°17'0 0.9
2018-Jun-28 10:30S 33°00' E 152°17'1 1.3
2018-Jun-28 10:01S 33°00' E 152°18'1 1.2
2018-Jun-28 09:31S 33°01' E 152°19'0 1.0
2018-Jun-28 09:01S 33°01' E 152°19'0 0.9
2018-Jun-28 08:31S 33°01' E 152°20'1 1.9
2018-Jun-28 08:01S 33°01' E 152°21'1 2.0
2018-Jun-28 07:31S 33°00' E 152°22'1 2.2
2018-Jun-28 07:01S 33°00' E 152°23'2 4.6
2018-Jun-28 06:31S 33°02' E 152°25'510.1
2018-Jun-28 06:01S 33°06' E 152°23'611.0
2018-Jun-28 05:30S 33°10' E 152°17'610.9
2018-Jun-28 05:00S 33°13' E 152°13'610.6
2018-Jun-28 04:28S 33°17' E 152°07'510.3
2018-Jun-28 04:00S 33°20' E 152°03'7 5.7
2018-Jun-28 02:44S 33°24' E 151°55'1 1.8
2018-Jun-28 01:57S 33°22' E 151°56'6 1.8
2018-Jun-27 22:39S 33°18' E 152°00'1 2.2
2018-Jun-27 21:58S 33°17' E 152°02'1 1.9
2018-Jun-27 21:30S 33°16' E 152°03'1 2.1
2018-Jun-27 21:00S 33°15' E 152°03'1 2.3
2018-Jun-27 20:31S 33°15' E 152°04'1 2.7
2018-Jun-27 20:01S 33°14' E 152°06'1 2.7
2018-Jun-27 19:31S 33°13' E 152°07'1 2.7
2018-Jun-27 19:01S 33°12' E 152°08'1 2.5
2018-Jun-27 18:31S 33°11' E 152°09'1 2.3
2018-Jun-27 18:01S 33°10' E 152°10'1 2.3
2018-Jun-27 17:31S 33°09' E 152°11'1 2.2
2018-Jun-27 17:01S 33°08' E 152°12'1 2.1
2018-Jun-27 16:31S 33°08' E 152°12'1 2.3
2018-Jun-27 16:01S 33°07' E 152°13'1 2.4
2018-Jun-27 15:31S 33°06' E 152°15'1 2.2
2018-Jun-27 15:00S 33°05' E 152°15'1 2.2
2018-Jun-27 14:31S 33°05' E 152°17'1 2.1
2018-Jun-27 13:59S 33°04' E 152°18'1 1.9
2018-Jun-27 13:31S 33°04' E 152°18'1 2.0
2018-Jun-27 13:01S 33°03' E 152°19'1 2.0
2018-Jun-27 12:31S 33°02' E 152°20'1 1.9
2018-Jun-27 11:57S 33°02' E 152°21'1 1.9
2018-Jun-27 11:31S 33°01' E 152°22'1 1.9
2018-Jun-27 11:01S 33°01' E 152°23'1 1.8
2018-Jun-27 10:31S 33°00' E 152°24'1 1.8
2018-Jun-27 09:58S 32°60' E 152°25'1 1.6
2018-Jun-27 09:27S 32°59' E 152°26'1 1.5
2018-Jun-27 08:57S 32°59' E 152°27'1 1.5
2018-Jun-27 08:31S 32°58' E 152°27'1 1.2
2018-Jun-27 08:01S 32°58' E 152°28'0 0.7
2018-Jun-27 07:31S 32°58' E 152°28'1 1.9
2018-Jun-27 07:00S 32°58' E 152°27'510.3
2018-Jun-27 06:30S 32°59' E 152°21'3 7.0
2018-Jun-27 06:01S 32°55' E 152°20'1 1.5
2018-Jun-27 05:29S 32°55' E 152°21'1 1.1
2018-Jun-27 04:59S 32°55' E 152°21'1 1.3
2018-Jun-27 04:30S 32°55' E 152°22'1 1.4
2018-Jun-27 04:00S 32°55' E 152°23'1 1.0
2018-Jun-27 03:30S 32°55' E 152°24'1 1.1
2018-Jun-27 03:00S 32°55' E 152°24'1 1.2
2018-Jun-27 02:30S 32°55' E 152°25'0 0.9
2018-Jun-27 02:00S 32°55' E 152°26'0 0.8
2018-Jun-27 01:30S 32°55' E 152°26'0 0.8
2018-Jun-27 01:00S 32°55' E 152°26'0 0.5
2018-Jun-27 00:30S 32°54' E 152°27'0 0.7
2018-Jun-27 00:00S 32°54' E 152°27'0 1.0
2018-Jun-26 23:30S 32°55' E 152°28'0 1.0
2018-Jun-26 23:00S 32°55' E 152°28'1 1.8
2018-Jun-26 22:30S 32°55' E 152°29'4 8.4
2018-Jun-26 22:00S 32°55' E 152°34'612.6
2018-Jun-26 21:30S 32°51' E 152°40'712.6
2018-Jun-26 20:57S 32°47' E 152°47'512.5
2018-Jun-26 20:30S 32°45' E 152°53'712.2
2018-Jun-26 19:58S 32°41' E 152°59'  

Dump ship's entire track history